TimeEST,TemperatureF,Dew PointF,Humidity,Sea Level PressureIn,VisibilityMPH,Wind Direction,Wind SpeedMPH,Gust SpeedMPH,PrecipitationIn,Events,Conditions,WindDirDegrees,DateUTC
12:15 AM,35.1,29.3,80,29.88,10.0,WSW,18.4,29.9,N/A,,Scattered Clouds,240,2013-01-08 05:15:00
12:35 AM,34.7,29.5,81,29.89,10.0,WSW,17.3,26.5,N/A,,Clear,240,2013-01-08 05:35:00
12:55 AM,34.7,30.0,83,29.90,10.0,WSW,13.8,26.5,N/A,,Clear,240,2013-01-08 05:55:00
1:35 AM,34.3,30.0,84,29.92,10.0,SW,13.8,23.0,N/A,,Clear,230,2013-01-08 06:35:00
1:55 AM,34.3,30.2,85,29.92,10.0,WSW,11.5,21.9,N/A,,Clear,240,2013-01-08 06:55:00
2:15 AM,33.8,30.0,86,29.93,10.0,WSW,10.4,23.0,N/A,,Clear,240,2013-01-08 07:15:00
2:35 AM,34.2,30.0,85,29.94,10.0,WSW,13.8,23.0,N/A,,Clear,250,2013-01-08 07:35:00
2:55 AM,34.7,29.3,81,29.94,10.0,WSW,12.7,20.7,N/A,,Clear,250,2013-01-08 07:55:00
3:15 AM,34.7,29.3,81,29.95,10.0,WSW,12.7,17.3,N/A,,Clear,250,2013-01-08 08:15:00
3:35 AM,34.3,29.3,82,29.95,10.0,WSW,9.2,18.4,N/A,,Clear,250,2013-01-08 08:35:00
3:55 AM,34.0,29.7,84,29.95,10.0,WSW,11.5,19.6,N/A,,Clear,240,2013-01-08 08:55:00
4:15 AM,34.2,29.3,82,29.96,10.0,WSW,9.2,18.4,N/A,,Clear,250,2013-01-08 09:15:00
4:35 AM,34.2,29.1,82,29.96,10.0,WSW,10.4,18.4,N/A,,Clear,240,2013-01-08 09:35:00
4:55 AM,33.4,29.1,84,29.97,10.0,WSW,10.4,-,N/A,,Clear,250,2013-01-08 09:55:00
5:15 AM,33.8,28.9,82,29.97,10.0,WSW,8.1,17.3,N/A,,Clear,240,2013-01-08 10:15:00
5:35 AM,33.4,28.9,84,29.98,10.0,WSW,9.2,17.3,N/A,,Clear,250,2013-01-08 10:35:00
5:55 AM,33.4,29.1,84,29.98,10.0,WSW,8.1,16.1,N/A,,Clear,250,2013-01-08 10:55:00
6:15 AM,32.9,29.1,86,29.99,10.0,WSW,9.2,-,N/A,,Clear,250,2013-01-08 11:15:00
6:35 AM,32.9,29.3,87,30.00,10.0,WSW,6.9,-,N/A,,Clear,240,2013-01-08 11:35:00
6:55 AM,32.9,29.3,87,30.01,10.0,West,5.8,-,N/A,,Clear,260,2013-01-08 11:55:00
7:15 AM,32.9,29.1,86,30.02,10.0,WSW,5.8,-,N/A,,Clear,240,2013-01-08 12:15:00
7:35 AM,32.9,28.8,85,30.03,10.0,WSW,4.6,-,N/A,,Clear,240,2013-01-08 12:35:00
7:55 AM,32.7,28.4,84,30.05,10.0,West,3.5,-,N/A,,Clear,270,2013-01-08 12:55:00
8:15 AM,32.0,27.7,84,30.05,10.0,West,5.8,-,N/A,,Clear,270,2013-01-08 13:15:00
8:35 AM,32.4,27.9,83,30.06,10.0,West,6.9,-,N/A,,Clear,270,2013-01-08 13:35:00
8:55 AM,32.0,27.5,83,30.07,10.0,West,5.8,-,N/A,,Clear,260,2013-01-08 13:55:00
9:15 AM,32.0,27.5,83,30.07,10.0,West,3.5,-,N/A,,Clear,260,2013-01-08 14:15:00
9:35 AM,32.2,27.5,83,30.08,10.0,West,9.2,-,N/A,,Scattered Clouds,270,2013-01-08 14:35:00
9:55 AM,32.9,27.3,80,30.08,10.0,West,6.9,-,N/A,,Scattered Clouds,260,2013-01-08 14:55:00
10:15 AM,34.2,27.3,76,30.10,10.0,West,4.6,-,N/A,,Scattered Clouds,270,2013-01-08 15:15:00
10:35 AM,34.9,27.0,73,30.09,10.0,West,4.6,-,N/A,,Scattered Clouds,270,2013-01-08 15:35:00
10:55 AM,34.0,27.1,76,30.10,10.0,South,4.6,-,N/A,,Mostly Cloudy,180,2013-01-08 15:55:00
11:15 AM,34.0,29.1,82,30.10,10.0,Calm,Calm,-,N/A,,Overcast,0,2013-01-08 16:15:00
11:34 AM,34.9,28.4,77,30.10,10.0,SW,3.5,-,N/A,,Overcast,230,2013-01-08 16:34:00
11:55 AM,35.1,27.7,74,30.09,10.0,Calm,Calm,-,N/A,,Overcast,0,2013-01-08 16:55:00
12:15 PM,35.4,27.9,74,30.09,10.0,WSW,4.6,-,N/A,,Mostly Cloudy,250,2013-01-08 17:15:00
12:55 PM,36.5,29.3,75,30.09,10.0,Calm,Calm,-,N/A,,Clear,0,2013-01-08 17:55:00
1:55 PM,36.7,29.7,76,30.09,10.0,West,3.5,-,N/A,,Clear,260,2013-01-08 18:55:00
2:15 PM,36.7,29.8,76,30.08,10.0,WSW,3.5,-,N/A,,Clear,240,2013-01-08 19:15:00
2:55 PM,36.9,30.4,77,30.08,10.0,West,3.5,-,N/A,,Clear,270,2013-01-08 19:55:00
3:15 PM,37.0,30.4,77,30.08,10.0,Calm,Calm,-,N/A,,Clear,0,2013-01-08 20:15:00
3:35 PM,36.5,30.4,78,30.08,10.0,Calm,Calm,-,N/A,,Clear,0,2013-01-08 20:35:00
3:55 PM,37.0,30.2,76,30.08,10.0,Calm,Calm,-,N/A,,Clear,0,2013-01-08 20:55:00
4:15 PM,36.3,29.8,77,30.09,10.0,SE,3.5,-,N/A,,Clear,140,2013-01-08 21:15:00
4:35 PM,35.6,30.2,81,30.08,10.0,East,3.5,-,N/A,,Clear,100,2013-01-08 21:35:00
4:55 PM,34.7,30.2,84,30.08,10.0,East,3.5,-,N/A,,Clear,100,2013-01-08 21:55:00
5:15 PM,34.9,30.7,85,30.08,7.0,SE,5.8,-,N/A,,Clear,130,2013-01-08 22:15:00
5:35 PM,34.7,29.7,82,30.07,10.0,ESE,6.9,-,N/A,,Clear,120,2013-01-08 22:35:00
5:55 PM,34.5,30.7,86,30.07,10.0,ESE,8.1,-,N/A,,Clear,120,2013-01-08 22:55:00
6:15 PM,34.3,30.6,86,30.05,10.0,ESE,8.1,-,N/A,,Clear,110,2013-01-08 23:15:00
6:35 PM,34.7,30.2,84,30.05,10.0,ESE,8.1,-,N/A,,Clear,120,2013-01-08 23:35:00
6:55 PM,34.7,29.8,82,30.04,10.0,SE,6.9,-,N/A,,Clear,130,2013-01-08 23:55:00
7:15 PM,35.2,28.9,78,30.04,10.0,SSE,8.1,-,N/A,,Clear,150,2013-01-09 00:15:00
7:35 PM,35.2,28.2,76,30.03,10.0,SSE,8.1,-,N/A,,Clear,160,2013-01-09 00:35:00
7:55 PM,34.5,28.0,77,30.02,10.0,SSE,10.4,17.3,N/A,,Clear,160,2013-01-09 00:55:00
8:15 PM,33.8,28.2,80,30.02,10.0,SSE,11.5,16.1,N/A,,Clear,160,2013-01-09 01:15:00
8:35 PM,33.6,28.0,80,30.00,10.0,SSE,11.5,-,N/A,,Clear,160,2013-01-09 01:35:00
8:55 PM,33.8,28.4,81,30.00,10.0,SSE,9.2,-,N/A,,Clear,160,2013-01-09 01:55:00
9:15 PM,33.3,28.4,82,30.00,7.0,SSE,8.1,-,N/A,,Clear,160,2013-01-09 02:15:00
9:35 PM,33.1,28.4,83,29.97,7.0,SE,8.1,16.1,N/A,,Clear,140,2013-01-09 02:35:00
9:55 PM,33.1,28.4,83,29.97,7.0,SSE,10.4,19.6,N/A,,Clear,160,2013-01-09 02:55:00
10:14 PM,32.9,28.2,83,29.96,7.0,SSE,13.8,23.0,N/A,,Clear,160,2013-01-09 03:14:00
10:35 PM,32.7,28.0,83,29.96,7.0,SSE,12.7,23.0,N/A,,Clear,160,2013-01-09 03:35:00
10:55 PM,32.5,27.9,83,29.95,7.0,SSE,10.4,19.6,N/A,,Clear,160,2013-01-09 03:55:00
11:14 PM,32.5,27.5,82,29.94,7.0,SSE,13.8,21.9,N/A,,Clear,160,2013-01-09 04:14:00
11:35 PM,32.7,27.3,81,29.93,7.0,SSE,10.4,20.7,N/A,,Clear,160,2013-01-09 04:35:00
11:55 PM,32.5,27.1,80,29.92,7.0,SSE,16.1,24.2,N/A,,Clear,160,2013-01-09 04:55:00